This is the latest recevied weather packets stored in our database for station/object KD6VLN-14. If no packets are shown the sender has not sent any weather packets the latest 1 day(s).
| Time | Temp. | Humidity | Pressure | Rain* | Wind** | Luminosity | Snow |
|---|---|---|---|---|---|---|---|
| 1778004434 | 23.89° C | 41% | - | 0 mm | 0.89 m/s, 318° | - | - |
| 1778004248 | 23.89° C | 41% | - | 0 mm | 0.89 m/s, 318° | - | - |
| 1778004140 | 23.33° C | 39% | - | 0 mm | 1.79 m/s, 225° | - | - |
| 1778003949 | 23.33° C | 39% | - | 0 mm | 1.79 m/s, 225° | - | - |
| 1778003864 | 23.33° C | 43% | - | 0 mm | 1.34 m/s, 233° | - | - |
| 1778003648 | 23.33° C | 43% | - | 0 mm | 1.34 m/s, 233° | - | - |
| 1778003541 | 23.33° C | 50% | - | 0 mm | 0.89 m/s, 85° | - | - |
| 1778003348 | 23.33° C | 50% | - | 0 mm | 0.89 m/s, 85° | - | - |
| 1778003218 | 22.22° C | 46% | - | 0 mm | 0.89 m/s, 181° | - | - |
| 1778003048 | 22.22° C | 46% | - | 0 mm | 0.89 m/s, 181° | - | - |
| 1778002923 | 21.67° C | 49% | - | 0 mm | 0.45 m/s, 6° | - | - |
| 1778002748 | 21.67° C | 49% | - | 0 mm | 0.45 m/s, 6° | - | - |
| 1778002593 | 22.22° C | 46% | - | 0 mm | 0.45 m/s, 302° | - | - |
| 1778002448 | 22.22° C | 46% | - | 0 mm | 0.45 m/s, 302° | - | - |
| 1778002353 | 22.22° C | 45% | - | 0 mm | 0.89 m/s, 314° | - | - |
| 1778002148 | 22.22° C | 45% | - | 0 mm | 0.89 m/s, 314° | - | - |
| 1778002013 | 21.67° C | 47% | - | 0 mm | 0.45 m/s, 4° | - | - |
| 1778001848 | 21.67° C | 47% | - | 0 mm | 0.45 m/s, 4° | - | - |
| 1778001650 | 21.67° C | 46% | - | 0 mm | 0.45 m/s, 1° | - | - |
| 1778001548 | 21.67° C | 46% | - | 0 mm | 0.45 m/s, 1° | - | - |
| 1778001436 | 22.22° C | 40% | - | 0 mm | 1.34 m/s, 242° | - | - |
| 1778001248 | 22.22° C | 40% | - | 0 mm | 1.34 m/s, 242° | - | - |
| 1778001158 | 21.67° C | 41% | - | 0 mm | 1.34 m/s, 264° | - | - |
| 1778000948 | 21.67° C | 41% | - | 0 mm | 1.34 m/s, 264° | - | - |
| 1778000861 | 21.67° C | 44% | - | 0 mm | 0.89 m/s, 307° | - | - |
* Rain latest hour (hover to see other rain measurements)
** Current wind speed in m/s (hover to see current wind gust speed)